sensor_id;sensor_type;location;lat;lon;timestamp;P1;durP1;ratioP1;P2;durP2;ratioP2
1531;SDS011;759;53.170;8.210;2022-10-16T00:00:19;11.30;;;4.85;;
1531;SDS011;759;53.170;8.210;2022-10-16T00:02:44;6.70;;;4.03;;
1531;SDS011;759;53.170;8.210;2022-10-16T00:05:10;6.63;;;3.63;;
1531;SDS011;759;53.170;8.210;2022-10-16T00:07:35;5.30;;;4.30;;
1531;SDS011;759;53.170;8.210;2022-10-16T00:10:00;4.43;;;3.50;;
1531;SDS011;759;53.170;8.210;2022-10-16T00:12:25;3.90;;;3.50;;
1531;SDS011;759;53.170;8.210;2022-10-16T00:14:50;3.43;;;2.63;;
1531;SDS011;759;53.170;8.210;2022-10-16T00:17:16;7.60;;;2.90;;
1531;SDS011;759;53.170;8.210;2022-10-16T00:19:42;4.37;;;3.30;;
1531;SDS011;759;53.170;8.210;2022-10-16T00:22:07;5.23;;;2.97;;
1531;SDS011;759;53.170;8.210;2022-10-16T00:24:32;6.90;;;3.57;;
1531;SDS011;759;53.170;8.210;2022-10-16T00:26:58;3.27;;;2.73;;
1531;SDS011;759;53.170;8.210;2022-10-16T00:29:23;2.90;;;2.67;;
1531;SDS011;759;53.170;8.210;2022-10-16T00:31:48;5.25;;;2.90;;
1531;SDS011;759;53.170;8.210;2022-10-16T00:34:14;5.10;;;3.65;;
1531;SDS011;759;53.170;8.210;2022-10-16T00:36:40;2.63;;;2.43;;
1531;SDS011;759;53.170;8.210;2022-10-16T00:39:05;4.80;;;3.20;;
1531;SDS011;759;53.170;8.210;2022-10-16T00:41:31;6.23;;;2.80;;
1531;SDS011;759;53.170;8.210;2022-10-16T00:44:02;3.57;;;2.50;;
1531;SDS011;759;53.170;8.210;2022-10-16T00:46:47;5.73;;;2.50;;
1531;SDS011;759;53.170;8.210;2022-10-16T00:49:14;3.07;;;2.87;;
1531;SDS011;759;53.170;8.210;2022-10-16T00:51:42;7.30;;;2.97;;
1531;SDS011;759;53.170;8.210;2022-10-16T00:54:10;7.10;;;2.60;;
1531;SDS011;759;53.170;8.210;2022-10-16T00:56:39;6.73;;;2.23;;
1531;SDS011;759;53.170;8.210;2022-10-16T00:59:07;7.40;;;2.77;;
1531;SDS011;759;53.170;8.210;2022-10-16T01:01:38;4.17;;;3.10;;
1531;SDS011;759;53.170;8.210;2022-10-16T01:04:04;4.07;;;2.63;;
1531;SDS011;759;53.170;8.210;2022-10-16T01:06:41;4.67;;;2.80;;
1531;SDS011;759;53.170;8.210;2022-10-16T01:09:16;9.40;;;3.53;;
1531;SDS011;759;53.170;8.210;2022-10-16T01:14:37;3.00;;;2.47;;
1531;SDS011;759;53.170;8.210;2022-10-16T01:17:11;6.50;;;2.85;;
1531;SDS011;759;53.170;8.210;2022-10-16T01:19:50;4.73;;;2.97;;
1531;SDS011;759;53.170;8.210;2022-10-16T01:22:38;3.10;;;2.57;;
1531;SDS011;759;53.170;8.210;2022-10-16T01:25:11;9.27;;;3.87;;
1531;SDS011;759;53.170;8.210;2022-10-16T01:27:47;5.65;;;2.60;;
1531;SDS011;759;53.170;8.210;2022-10-16T01:30:15;4.15;;;2.40;;
1531;SDS011;759;53.170;8.210;2022-10-16T01:32:50;2.27;;;2.10;;
1531;SDS011;759;53.170;8.210;2022-10-16T01:35:35;4.13;;;2.53;;
1531;SDS011;759;53.170;8.210;2022-10-16T01:38:16;3.53;;;3.20;;
1531;SDS011;759;53.170;8.210;2022-10-16T01:40:47;3.90;;;2.35;;
1531;SDS011;759;53.170;8.210;2022-10-16T01:43:20;3.95;;;2.15;;
1531;SDS011;759;53.170;8.210;2022-10-16T01:45:50;4.80;;;2.13;;
1531;SDS011;759;53.170;8.210;2022-10-16T01:48:17;4.43;;;2.23;;
1531;SDS011;759;53.170;8.210;2022-10-16T01:50:44;3.17;;;1.83;;
1531;SDS011;759;53.170;8.210;2022-10-16T01:53:20;8.20;;;2.40;;
1531;SDS011;759;53.170;8.210;2022-10-16T01:55:45;2.33;;;2.00;;
1531;SDS011;759;53.170;8.210;2022-10-16T01:58:13;6.95;;;2.60;;
1531;SDS011;759;53.170;8.210;2022-10-16T02:00:39;2.37;;;2.17;;
1531;SDS011;759;53.170;8.210;2022-10-16T02:03:08;7.80;;;3.00;;
1531;SDS011;759;53.170;8.210;2022-10-16T02:05:38;3.50;;;2.80;;
1531;SDS011;759;53.170;8.210;2022-10-16T02:08:09;4.95;;;2.15;;
1531;SDS011;759;53.170;8.210;2022-10-16T02:10:34;2.65;;;2.40;;
1531;SDS011;759;53.170;8.210;2022-10-16T02:13:09;2.80;;;2.60;;
1531;SDS011;759;53.170;8.210;2022-10-16T02:15:38;8.20;;;2.37;;
1531;SDS011;759;53.170;8.210;2022-10-16T02:18:04;6.73;;;2.57;;
1531;SDS011;759;53.170;8.210;2022-10-16T02:20:32;3.40;;;3.10;;
1531;SDS011;759;53.170;8.210;2022-10-16T02:23:16;7.77;;;2.77;;
1531;SDS011;759;53.170;8.210;2022-10-16T02:25:48;2.80;;;2.00;;
1531;SDS011;759;53.170;8.210;2022-10-16T02:28:19;3.50;;;2.37;;
1531;SDS011;759;53.170;8.210;2022-10-16T02:30:50;3.33;;;2.50;;
1531;SDS011;759;53.170;8.210;2022-10-16T02:33:24;2.65;;;2.45;;
1531;SDS011;759;53.170;8.210;2022-10-16T02:35:51;4.95;;;2.70;;
1531;SDS011;759;53.170;8.210;2022-10-16T02:38:18;2.27;;;2.00;;
1531;SDS011;759;53.170;8.210;2022-10-16T02:40:45;2.75;;;2.00;;
1531;SDS011;759;53.170;8.210;2022-10-16T02:43:11;3.87;;;2.30;;
1531;SDS011;759;53.170;8.210;2022-10-16T02:45:36;7.50;;;2.30;;
1531;SDS011;759;53.170;8.210;2022-10-16T02:48:02;1.77;;;1.67;;
1531;SDS011;759;53.170;8.210;2022-10-16T02:50:28;3.20;;;2.25;;
1531;SDS011;759;53.170;8.210;2022-10-16T02:52:53;2.60;;;2.07;;
1531;SDS011;759;53.170;8.210;2022-10-16T02:55:19;3.70;;;2.00;;
1531;SDS011;759;53.170;8.210;2022-10-16T02:57:44;4.07;;;1.93;;
1531;SDS011;759;53.170;8.210;2022-10-16T03:00:10;3.83;;;2.00;;
1531;SDS011;759;53.170;8.210;2022-10-16T03:02:37;2.00;;;1.80;;
1531;SDS011;759;53.170;8.210;2022-10-16T03:05:02;1.70;;;1.53;;
1531;SDS011;759;53.170;8.210;2022-10-16T03:07:28;4.15;;;1.90;;
1531;SDS011;759;53.170;8.210;2022-10-16T03:09:54;2.55;;;2.20;;
1531;SDS011;759;53.170;8.210;2022-10-16T03:12:20;5.83;;;2.23;;
1531;SDS011;759;53.170;8.210;2022-10-16T03:14:45;3.87;;;2.10;;
1531;SDS011;759;53.170;8.210;2022-10-16T03:17:11;3.05;;;1.75;;
1531;SDS011;759;53.170;8.210;2022-10-16T03:19:37;2.35;;;1.80;;
1531;SDS011;759;53.170;8.210;2022-10-16T03:22:03;3.20;;;2.20;;
1531;SDS011;759;53.170;8.210;2022-10-16T03:24:28;3.15;;;2.90;;
1531;SDS011;759;53.170;8.210;2022-10-16T03:26:53;2.00;;;1.80;;
1531;SDS011;759;53.170;8.210;2022-10-16T03:29:18;2.37;;;2.23;;
1531;SDS011;759;53.170;8.210;2022-10-16T03:31:44;4.20;;;1.95;;
1531;SDS011;759;53.170;8.210;2022-10-16T03:34:09;4.60;;;2.20;;
1531;SDS011;759;53.170;8.210;2022-10-16T03:36:34;3.10;;;2.50;;
1531;SDS011;759;53.170;8.210;2022-10-16T03:39:00;2.20;;;1.80;;
1531;SDS011;759;53.170;8.210;2022-10-16T03:41:25;3.15;;;1.95;;
1531;SDS011;759;53.170;8.210;2022-10-16T03:43:50;4.47;;;2.73;;
1531;SDS011;759;53.170;8.210;2022-10-16T03:46:15;7.60;;;2.60;;
1531;SDS011;759;53.170;8.210;2022-10-16T03:48:41;2.80;;;2.37;;
1531;SDS011;759;53.170;8.210;2022-10-16T03:51:06;2.10;;;1.90;;
1531;SDS011;759;53.170;8.210;2022-10-16T03:55:56;3.10;;;2.00;;
1531;SDS011;759;53.170;8.210;2022-10-16T04:00:47;5.15;;;3.25;;
1531;SDS011;759;53.170;8.210;2022-10-16T04:03:13;4.40;;;2.73;;
1531;SDS011;759;53.170;8.210;2022-10-16T04:05:38;5.50;;;2.80;;
1531;SDS011;759;53.170;8.210;2022-10-16T04:08:04;3.65;;;3.00;;
1531;SDS011;759;53.170;8.210;2022-10-16T04:10:30;4.77;;;2.90;;
1531;SDS011;759;53.170;8.210;2022-10-16T04:12:55;3.50;;;2.57;;
1531;SDS011;759;53.170;8.210;2022-10-16T04:15:21;5.03;;;2.40;;
1531;SDS011;759;53.170;8.210;2022-10-16T04:17:49;3.20;;;2.90;;
1531;SDS011;759;53.170;8.210;2022-10-16T04:20:15;4.80;;;3.10;;
1531;SDS011;759;53.170;8.210;2022-10-16T04:22:40;8.20;;;3.40;;
1531;SDS011;759;53.170;8.210;2022-10-16T04:25:05;6.03;;;3.23;;
1531;SDS011;759;53.170;8.210;2022-10-16T04:27:31;4.80;;;3.30;;
1531;SDS011;759;53.170;8.210;2022-10-16T04:29:57;3.97;;;3.10;;
1531;SDS011;759;53.170;8.210;2022-10-16T04:32:23;5.83;;;3.60;;
1531;SDS011;759;53.170;8.210;2022-10-16T04:34:48;4.50;;;3.23;;
1531;SDS011;759;53.170;8.210;2022-10-16T04:37:13;6.10;;;4.45;;
1531;SDS011;759;53.170;8.210;2022-10-16T04:39:38;5.05;;;3.20;;
1531;SDS011;759;53.170;8.210;2022-10-16T04:42:03;6.57;;;3.87;;
1531;SDS011;759;53.170;8.210;2022-10-16T04:44:29;4.27;;;3.87;;
1531;SDS011;759;53.170;8.210;2022-10-16T04:46:54;5.30;;;4.40;;
1531;SDS011;759;53.170;8.210;2022-10-16T04:49:19;5.30;;;4.05;;
1531;SDS011;759;53.170;8.210;2022-10-16T04:51:45;8.33;;;4.67;;
1531;SDS011;759;53.170;8.210;2022-10-16T04:54:10;8.13;;;4.20;;
1531;SDS011;759;53.170;8.210;2022-10-16T04:56:35;7.63;;;5.20;;
1531;SDS011;759;53.170;8.210;2022-10-16T04:59:07;9.70;;;5.23;;
1531;SDS011;759;53.170;8.210;2022-10-16T05:01:33;8.33;;;4.90;;
1531;SDS011;759;53.170;8.210;2022-10-16T05:03:58;6.55;;;4.75;;
1531;SDS011;759;53.170;8.210;2022-10-16T05:06:24;7.10;;;5.75;;
1531;SDS011;759;53.170;8.210;2022-10-16T05:08:49;9.50;;;5.60;;
1531;SDS011;759;53.170;8.210;2022-10-16T05:11:14;6.97;;;5.57;;
1531;SDS011;759;53.170;8.210;2022-10-16T05:13:39;6.97;;;5.67;;
1531;SDS011;759;53.170;8.210;2022-10-16T05:16:05;8.10;;;6.60;;
1531;SDS011;759;53.170;8.210;2022-10-16T05:18:30;11.25;;;6.90;;
1531;SDS011;759;53.170;8.210;2022-10-16T05:20:55;6.77;;;5.77;;
1531;SDS011;759;53.170;8.210;2022-10-16T05:23:21;6.77;;;6.07;;
1531;SDS011;759;53.170;8.210;2022-10-16T05:25:56;9.33;;;6.37;;
1531;SDS011;759;53.170;8.210;2022-10-16T05:28:23;7.20;;;5.95;;
1531;SDS011;759;53.170;8.210;2022-10-16T05:30:49;9.70;;;6.50;;
1531;SDS011;759;53.170;8.210;2022-10-16T05:33:14;13.05;;;5.95;;
1531;SDS011;759;53.170;8.210;2022-10-16T05:35:39;14.75;;;6.70;;
1531;SDS011;759;53.170;8.210;2022-10-16T05:38:05;7.37;;;6.37;;
1531;SDS011;759;53.170;8.210;2022-10-16T05:40:30;13.33;;;6.80;;
1531;SDS011;759;53.170;8.210;2022-10-16T05:42:55;13.90;;;7.55;;
1531;SDS011;759;53.170;8.210;2022-10-16T05:45:20;8.80;;;6.10;;
1531;SDS011;759;53.170;8.210;2022-10-16T05:47:46;11.77;;;7.10;;
1531;SDS011;759;53.170;8.210;2022-10-16T05:50:11;8.73;;;7.57;;
1531;SDS011;759;53.170;8.210;2022-10-16T05:52:36;9.70;;;7.10;;
1531;SDS011;759;53.170;8.210;2022-10-16T05:55:02;7.75;;;6.40;;
1531;SDS011;759;53.170;8.210;2022-10-16T05:57:27;8.27;;;6.70;;
1531;SDS011;759;53.170;8.210;2022-10-16T05:59:53;12.10;;;6.55;;
1531;SDS011;759;53.170;8.210;2022-10-16T06:02:18;9.97;;;6.40;;
1531;SDS011;759;53.170;8.210;2022-10-16T06:04:43;7.70;;;6.20;;
1531;SDS011;759;53.170;8.210;2022-10-16T06:07:08;7.00;;;6.30;;
1531;SDS011;759;53.170;8.210;2022-10-16T06:09:34;10.00;;;7.90;;
1531;SDS011;759;53.170;8.210;2022-10-16T06:11:59;10.20;;;6.67;;
1531;SDS011;759;53.170;8.210;2022-10-16T06:14:24;8.90;;;6.90;;
1531;SDS011;759;53.170;8.210;2022-10-16T06:16:49;10.40;;;6.70;;
1531;SDS011;759;53.170;8.210;2022-10-16T06:19:15;10.50;;;6.90;;
1531;SDS011;759;53.170;8.210;2022-10-16T06:21:41;10.40;;;7.15;;
1531;SDS011;759;53.170;8.210;2022-10-16T06:24:06;7.67;;;5.73;;
1531;SDS011;759;53.170;8.210;2022-10-16T06:26:32;7.20;;;6.50;;
1531;SDS011;759;53.170;8.210;2022-10-16T06:28:58;7.20;;;5.30;;
1531;SDS011;759;53.170;8.210;2022-10-16T06:31:24;7.77;;;7.07;;
1531;SDS011;759;53.170;8.210;2022-10-16T06:33:55;9.13;;;7.03;;
1531;SDS011;759;53.170;8.210;2022-10-16T06:36:21;8.47;;;6.27;;
1531;SDS011;759;53.170;8.210;2022-10-16T06:38:47;7.87;;;5.77;;
1531;SDS011;759;53.170;8.210;2022-10-16T06:41:14;6.60;;;5.73;;
1531;SDS011;759;53.170;8.210;2022-10-16T06:43:40;9.80;;;6.90;;
1531;SDS011;759;53.170;8.210;2022-10-16T06:46:07;6.97;;;5.40;;
1531;SDS011;759;53.170;8.210;2022-10-16T06:48:34;7.80;;;5.70;;
1531;SDS011;759;53.170;8.210;2022-10-16T06:51:02;6.90;;;6.10;;
1531;SDS011;759;53.170;8.210;2022-10-16T06:53:30;6.50;;;5.80;;
1531;SDS011;759;53.170;8.210;2022-10-16T06:56:12;7.70;;;6.00;;
1531;SDS011;759;53.170;8.210;2022-10-16T06:58:39;5.60;;;4.60;;
1531;SDS011;759;53.170;8.210;2022-10-16T07:01:05;7.30;;;6.60;;
1531;SDS011;759;53.170;8.210;2022-10-16T07:06:00;8.33;;;5.33;;
1531;SDS011;759;53.170;8.210;2022-10-16T07:08:27;5.75;;;5.15;;
1531;SDS011;759;53.170;8.210;2022-10-16T07:11:01;7.20;;;5.45;;
1531;SDS011;759;53.170;8.210;2022-10-16T07:13:27;5.77;;;5.23;;
1531;SDS011;759;53.170;8.210;2022-10-16T07:15:53;4.50;;;4.10;;
1531;SDS011;759;53.170;8.210;2022-10-16T07:18:18;6.33;;;5.47;;
1531;SDS011;759;53.170;8.210;2022-10-16T07:20:43;6.77;;;5.03;;
1531;SDS011;759;53.170;8.210;2022-10-16T07:23:09;7.30;;;4.80;;
1531;SDS011;759;53.170;8.210;2022-10-16T07:25:34;4.65;;;4.00;;
1531;SDS011;759;53.170;8.210;2022-10-16T07:27:59;5.00;;;3.80;;
1531;SDS011;759;53.170;8.210;2022-10-16T07:30:24;9.03;;;5.47;;
1531;SDS011;759;53.170;8.210;2022-10-16T07:32:49;6.55;;;4.20;;
1531;SDS011;759;53.170;8.210;2022-10-16T07:35:15;4.55;;;3.95;;
1531;SDS011;759;53.170;8.210;2022-10-16T07:37:43;7.30;;;3.80;;
1531;SDS011;759;53.170;8.210;2022-10-16T07:40:09;8.40;;;4.40;;
1531;SDS011;759;53.170;8.210;2022-10-16T07:42:35;5.60;;;3.70;;
1531;SDS011;759;53.170;8.210;2022-10-16T07:45:00;5.43;;;3.53;;
1531;SDS011;759;53.170;8.210;2022-10-16T07:47:25;4.40;;;4.10;;
1531;SDS011;759;53.170;8.210;2022-10-16T07:49:51;9.93;;;4.30;;
1531;SDS011;759;53.170;8.210;2022-10-16T07:52:16;8.43;;;3.90;;
1531;SDS011;759;53.170;8.210;2022-10-16T07:54:41;4.15;;;3.75;;
1531;SDS011;759;53.170;8.210;2022-10-16T07:57:06;4.35;;;3.80;;
1531;SDS011;759;53.170;8.210;2022-10-16T07:59:32;6.35;;;3.30;;
1531;SDS011;759;53.170;8.210;2022-10-16T08:01:57;4.00;;;3.60;;
1531;SDS011;759;53.170;8.210;2022-10-16T08:04:22;3.90;;;2.83;;
1531;SDS011;759;53.170;8.210;2022-10-16T08:06:47;6.85;;;3.20;;
1531;SDS011;759;53.170;8.210;2022-10-16T08:09:14;3.30;;;3.10;;
1531;SDS011;759;53.170;8.210;2022-10-16T08:11:39;5.17;;;3.27;;
1531;SDS011;759;53.170;8.210;2022-10-16T08:14:04;4.23;;;3.40;;
1531;SDS011;759;53.170;8.210;2022-10-16T08:16:29;3.83;;;3.10;;
1531;SDS011;759;53.170;8.210;2022-10-16T08:18:55;4.53;;;2.80;;
1531;SDS011;759;53.170;8.210;2022-10-16T08:21:20;3.80;;;2.70;;
1531;SDS011;759;53.170;8.210;2022-10-16T08:23:48;3.53;;;2.40;;
1531;SDS011;759;53.170;8.210;2022-10-16T08:26:17;2.70;;;2.50;;
1531;SDS011;759;53.170;8.210;2022-10-16T08:28:44;3.17;;;2.87;;
1531;SDS011;759;53.170;8.210;2022-10-16T08:31:10;3.10;;;2.30;;
1531;SDS011;759;53.170;8.210;2022-10-16T08:33:37;3.80;;;2.40;;
1531;SDS011;759;53.170;8.210;2022-10-16T08:36:04;2.17;;;1.97;;
1531;SDS011;759;53.170;8.210;2022-10-16T08:38:30;3.97;;;2.37;;
1531;SDS011;759;53.170;8.210;2022-10-16T08:47:02;2.87;;;1.60;;
1531;SDS011;759;53.170;8.210;2022-10-16T08:49:38;2.53;;;2.03;;
1531;SDS011;759;53.170;8.210;2022-10-16T08:52:10;6.90;;;1.90;;
1531;SDS011;759;53.170;8.210;2022-10-16T08:54:41;2.40;;;2.10;;
1531;SDS011;759;53.170;8.210;2022-10-16T08:57:11;4.05;;;2.35;;
1531;SDS011;759;53.170;8.210;2022-10-16T08:59:41;2.47;;;2.27;;
1531;SDS011;759;53.170;8.210;2022-10-16T09:07:45;3.43;;;2.20;;
1531;SDS011;759;53.170;8.210;2022-10-16T09:13:02;1.80;;;1.50;;
1531;SDS011;759;53.170;8.210;2022-10-16T09:18:32;2.73;;;2.20;;
1531;SDS011;759;53.170;8.210;2022-10-16T09:23:43;3.10;;;2.10;;
1531;SDS011;759;53.170;8.210;2022-10-16T09:26:09;2.50;;;1.80;;
1531;SDS011;759;53.170;8.210;2022-10-16T09:28:37;5.00;;;1.97;;
1531;SDS011;759;53.170;8.210;2022-10-16T09:31:03;4.45;;;1.90;;
1531;SDS011;759;53.170;8.210;2022-10-16T09:33:37;2.97;;;1.30;;
1531;SDS011;759;53.170;8.210;2022-10-16T09:36:05;3.20;;;1.90;;
1531;SDS011;759;53.170;8.210;2022-10-16T09:38:32;2.40;;;1.80;;
1531;SDS011;759;53.170;8.210;2022-10-16T09:41:01;2.90;;;2.00;;
1531;SDS011;759;53.170;8.210;2022-10-16T09:43:55;4.00;;;1.97;;
1531;SDS011;759;53.170;8.210;2022-10-16T09:48:54;1.40;;;1.30;;
1531;SDS011;759;53.170;8.210;2022-10-16T09:51:28;1.77;;;1.40;;
1531;SDS011;759;53.170;8.210;2022-10-16T09:54:00;3.13;;;1.43;;
1531;SDS011;759;53.170;8.210;2022-10-16T09:56:33;4.80;;;1.40;;
1531;SDS011;759;53.170;8.210;2022-10-16T09:59:02;2.40;;;2.15;;
1531;SDS011;759;53.170;8.210;2022-10-16T10:01:38;2.25;;;1.30;;
1531;SDS011;759;53.170;8.210;2022-10-16T10:04:05;1.23;;;1.13;;
1531;SDS011;759;53.170;8.210;2022-10-16T10:06:35;3.60;;;1.40;;
1531;SDS011;759;53.170;8.210;2022-10-16T10:12:03;2.10;;;1.90;;
1531;SDS011;759;53.170;8.210;2022-10-16T10:14:37;3.30;;;1.70;;
1531;SDS011;759;53.170;8.210;2022-10-16T10:17:17;4.23;;;1.63;;
1531;SDS011;759;53.170;8.210;2022-10-16T14:30:56;6.50;;;1.63;;
1531;SDS011;759;53.170;8.210;2022-10-16T14:33:33;3.10;;;1.47;;
1531;SDS011;759;53.170;8.210;2022-10-16T14:38:29;4.57;;;1.60;;
1531;SDS011;759;53.170;8.210;2022-10-16T14:40:59;3.00;;;1.33;;
1531;SDS011;759;53.170;8.210;2022-10-16T14:43:31;2.70;;;1.60;;
1531;SDS011;759;53.170;8.210;2022-10-16T14:46:01;2.40;;;1.20;;
1531;SDS011;759;53.170;8.210;2022-10-16T14:48:30;3.17;;;1.37;;
1531;SDS011;759;53.170;8.210;2022-10-16T14:50:55;3.03;;;1.60;;
1531;SDS011;759;53.170;8.210;2022-10-16T14:53:21;2.85;;;1.70;;
1531;SDS011;759;53.170;8.210;2022-10-16T14:55:46;6.60;;;2.40;;
1531;SDS011;759;53.170;8.210;2022-10-16T14:58:14;1.70;;;1.00;;
1531;SDS011;759;53.170;8.210;2022-10-16T15:00:41;2.00;;;1.30;;
1531;SDS011;759;53.170;8.210;2022-10-16T15:03:06;6.10;;;2.27;;
1531;SDS011;759;53.170;8.210;2022-10-16T15:05:32;2.70;;;1.60;;
1531;SDS011;759;53.170;8.210;2022-10-16T15:07:57;8.00;;;1.80;;
1531;SDS011;759;53.170;8.210;2022-10-16T15:12:49;5.30;;;1.70;;
1531;SDS011;759;53.170;8.210;2022-10-16T15:18:17;5.40;;;1.80;;
1531;SDS011;759;53.170;8.210;2022-10-16T15:25:42;4.30;;;1.70;;
1531;SDS011;759;53.170;8.210;2022-10-16T15:28:08;6.80;;;1.70;;
1531;SDS011;759;53.170;8.210;2022-10-16T15:30:35;6.10;;;1.50;;
1531;SDS011;759;53.170;8.210;2022-10-16T15:33:02;3.50;;;2.50;;
1531;SDS011;759;53.170;8.210;2022-10-16T15:35:28;5.80;;;2.15;;
1531;SDS011;759;53.170;8.210;2022-10-16T15:37:53;6.43;;;1.87;;
1531;SDS011;759;53.170;8.210;2022-10-16T15:40:22;4.23;;;1.13;;
1531;SDS011;759;53.170;8.210;2022-10-16T15:42:48;1.80;;;1.20;;
1531;SDS011;759;53.170;8.210;2022-10-16T15:47:42;4.75;;;1.55;;
1531;SDS011;759;53.170;8.210;2022-10-16T15:50:09;2.40;;;1.23;;
1531;SDS011;759;53.170;8.210;2022-10-16T15:52:36;3.20;;;1.60;;
1531;SDS011;759;53.170;8.210;2022-10-16T15:55:02;3.83;;;2.00;;
1531;SDS011;759;53.170;8.210;2022-10-16T15:57:28;4.67;;;1.90;;
1531;SDS011;759;53.170;8.210;2022-10-16T15:59:54;5.60;;;2.05;;
1531;SDS011;759;53.170;8.210;2022-10-16T16:02:19;4.13;;;1.47;;
1531;SDS011;759;53.170;8.210;2022-10-16T16:04:44;4.87;;;1.77;;
1531;SDS011;759;53.170;8.210;2022-10-16T16:07:10;5.53;;;1.47;;
1531;SDS011;759;53.170;8.210;2022-10-16T16:09:35;4.10;;;2.10;;
1531;SDS011;759;53.170;8.210;2022-10-16T16:12:01;3.90;;;2.43;;
1531;SDS011;759;53.170;8.210;2022-10-16T16:14:26;2.43;;;2.10;;
1531;SDS011;759;53.170;8.210;2022-10-16T16:16:55;10.33;;;2.70;;
1531;SDS011;759;53.170;8.210;2022-10-16T16:19:21;6.25;;;3.00;;
1531;SDS011;759;53.170;8.210;2022-10-16T16:21:46;5.50;;;3.20;;
1531;SDS011;759;53.170;8.210;2022-10-16T16:24:12;4.73;;;2.13;;
1531;SDS011;759;53.170;8.210;2022-10-16T16:26:38;6.80;;;3.70;;
1531;SDS011;759;53.170;8.210;2022-10-16T16:29:04;5.90;;;3.00;;
1531;SDS011;759;53.170;8.210;2022-10-16T16:31:30;1.97;;;1.77;;
1531;SDS011;759;53.170;8.210;2022-10-16T16:33:57;3.50;;;1.50;;
1531;SDS011;759;53.170;8.210;2022-10-16T16:36:23;2.75;;;2.05;;
1531;SDS011;759;53.170;8.210;2022-10-16T16:38:49;7.55;;;1.75;;
1531;SDS011;759;53.170;8.210;2022-10-16T16:41:15;4.60;;;2.57;;
1531;SDS011;759;53.170;8.210;2022-10-16T16:43:42;9.27;;;3.37;;
1531;SDS011;759;53.170;8.210;2022-10-16T16:46:08;3.17;;;2.07;;
1531;SDS011;759;53.170;8.210;2022-10-16T16:48:34;3.53;;;1.93;;
1531;SDS011;759;53.170;8.210;2022-10-16T16:51:06;5.90;;;2.60;;
1531;SDS011;759;53.170;8.210;2022-10-16T16:53:34;5.30;;;2.60;;
1531;SDS011;759;53.170;8.210;2022-10-16T16:56:03;5.20;;;2.40;;
1531;SDS011;759;53.170;8.210;2022-10-16T16:58:30;9.73;;;3.20;;
1531;SDS011;759;53.170;8.210;2022-10-16T17:00:56;2.43;;;2.00;;
1531;SDS011;759;53.170;8.210;2022-10-16T17:03:25;8.20;;;3.40;;
1531;SDS011;759;53.170;8.210;2022-10-16T17:05:59;6.63;;;3.90;;
1531;SDS011;759;53.170;8.210;2022-10-16T17:08:26;8.47;;;3.53;;
1531;SDS011;759;53.170;8.210;2022-10-16T17:10:51;4.63;;;4.10;;
1531;SDS011;759;53.170;8.210;2022-10-16T17:13:20;9.30;;;5.37;;
1531;SDS011;759;53.170;8.210;2022-10-16T17:15:47;11.97;;;7.73;;
1531;SDS011;759;53.170;8.210;2022-10-16T17:18:13;8.97;;;7.00;;
1531;SDS011;759;53.170;8.210;2022-10-16T17:20:39;11.75;;;9.10;;
1531;SDS011;759;53.170;8.210;2022-10-16T17:23:05;18.63;;;13.23;;
1531;SDS011;759;53.170;8.210;2022-10-16T17:25:31;27.70;;;17.70;;
1531;SDS011;759;53.170;8.210;2022-10-16T17:27:56;30.67;;;19.70;;
1531;SDS011;759;53.170;8.210;2022-10-16T17:30:23;36.43;;;21.30;;
1531;SDS011;759;53.170;8.210;2022-10-16T17:32:49;29.70;;;19.40;;
1531;SDS011;759;53.170;8.210;2022-10-16T17:35:14;27.00;;;19.73;;
1531;SDS011;759;53.170;8.210;2022-10-16T17:37:41;26.77;;;17.03;;
1531;SDS011;759;53.170;8.210;2022-10-16T17:40:06;22.50;;;19.10;;
1531;SDS011;759;53.170;8.210;2022-10-16T17:42:33;23.70;;;16.37;;
1531;SDS011;759;53.170;8.210;2022-10-16T17:44:58;20.20;;;17.10;;
1531;SDS011;759;53.170;8.210;2022-10-16T17:47:23;18.70;;;16.70;;
1531;SDS011;759;53.170;8.210;2022-10-16T17:49:48;17.00;;;15.20;;
1531;SDS011;759;53.170;8.210;2022-10-16T17:52:15;22.90;;;17.70;;
1531;SDS011;759;53.170;8.210;2022-10-16T17:54:40;26.97;;;19.03;;
1531;SDS011;759;53.170;8.210;2022-10-16T17:57:05;34.70;;;21.60;;
1531;SDS011;759;53.170;8.210;2022-10-16T17:59:31;32.00;;;22.57;;
1531;SDS011;759;53.170;8.210;2022-10-16T18:01:56;31.33;;;21.63;;
1531;SDS011;759;53.170;8.210;2022-10-16T18:04:21;31.50;;;18.07;;
1531;SDS011;759;53.170;8.210;2022-10-16T18:06:47;17.30;;;12.75;;
1531;SDS011;759;53.170;8.210;2022-10-16T18:09:13;14.60;;;10.10;;
1531;SDS011;759;53.170;8.210;2022-10-16T18:11:42;14.30;;;11.00;;
1531;SDS011;759;53.170;8.210;2022-10-16T18:14:07;17.20;;;11.63;;
1531;SDS011;759;53.170;8.210;2022-10-16T18:16:36;12.73;;;9.53;;
1531;SDS011;759;53.170;8.210;2022-10-16T18:19:03;9.15;;;6.95;;
1531;SDS011;759;53.170;8.210;2022-10-16T18:21:28;13.60;;;7.27;;
1531;SDS011;759;53.170;8.210;2022-10-16T18:23:54;19.13;;;14.63;;
1531;SDS011;759;53.170;8.210;2022-10-16T18:26:21;17.80;;;14.10;;
1531;SDS011;759;53.170;8.210;2022-10-16T18:28:47;21.00;;;13.93;;
1531;SDS011;759;53.170;8.210;2022-10-16T18:31:15;17.15;;;12.15;;
1531;SDS011;759;53.170;8.210;2022-10-16T18:33:41;13.43;;;11.03;;
1531;SDS011;759;53.170;8.210;2022-10-16T18:36:15;16.70;;;13.10;;
1531;SDS011;759;53.170;8.210;2022-10-16T18:38:42;23.45;;;14.75;;
1531;SDS011;759;53.170;8.210;2022-10-16T18:41:08;18.07;;;12.80;;
1531;SDS011;759;53.170;8.210;2022-10-16T18:43:34;17.87;;;12.10;;
1531;SDS011;759;53.170;8.210;2022-10-16T18:46:01;16.10;;;12.33;;
1531;SDS011;759;53.170;8.210;2022-10-16T18:48:29;19.33;;;14.03;;
1531;SDS011;759;53.170;8.210;2022-10-16T18:51:04;17.90;;;13.33;;
1531;SDS011;759;53.170;8.210;2022-10-16T18:53:44;17.53;;;12.63;;
1531;SDS011;759;53.170;8.210;2022-10-16T18:56:11;24.30;;;16.47;;
1531;SDS011;759;53.170;8.210;2022-10-16T18:58:39;25.67;;;16.47;;
1531;SDS011;759;53.170;8.210;2022-10-16T19:01:08;26.80;;;19.80;;
1531;SDS011;759;53.170;8.210;2022-10-16T19:03:36;21.63;;;16.40;;
1531;SDS011;759;53.170;8.210;2022-10-16T19:06:06;21.97;;;16.27;;
1531;SDS011;759;53.170;8.210;2022-10-16T19:08:35;16.83;;;14.83;;
1531;SDS011;759;53.170;8.210;2022-10-16T19:11:16;18.27;;;13.37;;
1531;SDS011;759;53.170;8.210;2022-10-16T19:13:43;14.77;;;11.80;;
1531;SDS011;759;53.170;8.210;2022-10-16T19:16:11;17.03;;;12.30;;
1531;SDS011;759;53.170;8.210;2022-10-16T19:18:37;14.90;;;10.80;;
1531;SDS011;759;53.170;8.210;2022-10-16T19:21:06;23.20;;;14.00;;
1531;SDS011;759;53.170;8.210;2022-10-16T19:23:32;27.30;;;15.53;;
1531;SDS011;759;53.170;8.210;2022-10-16T19:26:05;18.10;;;12.80;;
1531;SDS011;759;53.170;8.210;2022-10-16T19:28:32;27.33;;;16.30;;
1531;SDS011;759;53.170;8.210;2022-10-16T19:31:05;24.77;;;17.07;;
1531;SDS011;759;53.170;8.210;2022-10-16T19:33:33;21.53;;;16.60;;
1531;SDS011;759;53.170;8.210;2022-10-16T19:36:12;20.87;;;15.00;;
1531;SDS011;759;53.170;8.210;2022-10-16T19:38:38;18.07;;;13.90;;
1531;SDS011;759;53.170;8.210;2022-10-16T19:41:14;15.40;;;12.50;;
1531;SDS011;759;53.170;8.210;2022-10-16T19:43:41;20.40;;;16.67;;
1531;SDS011;759;53.170;8.210;2022-10-16T19:46:08;20.50;;;15.45;;
1531;SDS011;759;53.170;8.210;2022-10-16T19:48:35;20.70;;;16.75;;
1531;SDS011;759;53.170;8.210;2022-10-16T19:51:00;24.80;;;17.90;;
1531;SDS011;759;53.170;8.210;2022-10-16T19:53:26;17.80;;;13.00;;
1531;SDS011;759;53.170;8.210;2022-10-16T19:55:53;15.07;;;12.40;;
1531;SDS011;759;53.170;8.210;2022-10-16T19:58:19;17.40;;;13.40;;
1531;SDS011;759;53.170;8.210;2022-10-16T20:00:45;14.80;;;12.10;;
1531;SDS011;759;53.170;8.210;2022-10-16T20:03:10;14.63;;;11.93;;
1531;SDS011;759;53.170;8.210;2022-10-16T20:05:35;14.80;;;12.33;;
1531;SDS011;759;53.170;8.210;2022-10-16T20:08:01;13.97;;;11.03;;
1531;SDS011;759;53.170;8.210;2022-10-16T20:10:26;14.23;;;12.40;;
1531;SDS011;759;53.170;8.210;2022-10-16T20:12:51;19.30;;;12.87;;
1531;SDS011;759;53.170;8.210;2022-10-16T20:15:17;24.43;;;14.07;;
1531;SDS011;759;53.170;8.210;2022-10-16T20:17:42;15.55;;;12.15;;
1531;SDS011;759;53.170;8.210;2022-10-16T20:20:08;13.50;;;12.10;;
1531;SDS011;759;53.170;8.210;2022-10-16T20:22:33;16.43;;;12.90;;
1531;SDS011;759;53.170;8.210;2022-10-16T20:24:58;12.80;;;11.50;;
1531;SDS011;759;53.170;8.210;2022-10-16T20:27:24;16.40;;;12.33;;